Latest Weather Observations for Albion Park

IDN60801

Issued at 10:03 am EST Wednesday 28 September 2016 (issued every 30 minutes, with the page automatically refreshed every 10 minutes)

About weather observations | Map of weather stations | Latest weather observations for NSW | Other Formats
Station Details ID: 068241 Name: WOLLONGONG AIRPORT Lat: -34.56 Lon: 150.79 Height: 8.0 m
Data from the previous 72 hours. | See also: Recent months at Albion Park
Date/Time
EST
Temp
°C
App
Temp
°C
Dew
Point
°C
Rel
Hum
%
Delta-T
°C
Wind Press
QNH
hPa
Press
MSL
hPa
Rain since
9am
mm
Dir  Spd
km/h
Gust
km/h
Spd
kts
Gust
kts
28/10:00am 17.8 13.8 4.7 42 6.2 SE 15 24 8 13 1014.1 1014.1 0.0
28/09:30am 17.6 13.9 4.6 42 6.2 S 13 26 7 14 1014.3 1014.3 0.0
28/09:00am 17.2 13.8 4.2 42 6.1 S 11 20 6 11 1014.5 1014.5 0.0
28/08:30am 16.5 13.6 4.9 46 5.5 SW 9 15 5 8 1014.6 1014.6 0.0
28/08:00am 15.7 11.7 5.0 49 5.1 WSW 15 17 8 9 1014.5 1014.5 0.0
28/07:30am 14.7 10.7 5.0 52 4.5 WSW 15 20 8 11 1014.4 1014.4 0.0
28/07:00am 12.7 9.6 5.6 62 3.3 WSW 11 17 6 9 1014.2 1014.2 0.0
28/06:30am 9.5 6.5 5.9 78 1.6 WSW 11 11 6 6 1013.9 1013.9 0.0
28/06:00am 7.2 4.3 4.7 84 1.1 SW 9 11 5 6 1013.6 1013.6 0.0
28/05:30am 7.3 3.5 3.9 79 1.5 SW 13 17 7 9 1013.3 1013.3 0.0
28/05:00am 9.0 4.9 4.2 72 2.1 WSW 15 17 8 9 1013.1 1013.1 0.0
28/04:30am 9.8 6.4 4.2 68 2.5 WSW 11 13 6 7 1013.2 1013.2 0.0
28/04:00am 9.5 6.1 3.9 68 2.5 WSW 11 17 6 9 1013.1 1013.1 0.0
28/03:30am 11.0 6.1 4.2 63 3.0 W 19 22 10 12 1012.9 1012.9 0.0
28/03:00am 10.8 6.4 4.7 66 2.8 W 17 24 9 13 1012.9 1012.9 0.0
28/02:30am 9.8 5.0 4.8 71 2.2 W 19 20 10 11 1012.8 1012.8 0.0
28/02:00am 11.3 6.8 4.3 62 3.1 W 17 22 9 12 1012.8 1012.8 0.0
28/01:30am 11.1 8.5 4.3 63 3.0 W 7 13 4 7 1012.9 1012.9 0.0
28/01:00am 10.9 6.5 4.6 65 2.8 W 17 24 9 13 1013.1 1013.1 0.0
28/12:30am 9.7 8.4 4.1 68 2.5 CALM 0 6 0 3 1013.1 1013.1 0.0
28/12:00am 11.6 6.7 4.3 61 3.3 WNW 19 20 10 11 1013.0 1013.0 0.0
 
Date/Time
EST
Temp
°C
App
Temp
°C
Dew
Point
°C
Rel
Hum
%
Delta-T
°C
Wind Press
QNH
hPa
Press
MSL
hPa
Rain since
9am
mm
Dir  Spd
km/h
Gust
km/h
Spd
kts
Gust
kts
27/11:30pm 11.1 6.7 4.6 64 2.9 WNW 17 20 9 11 1012.9 1012.9 0.0
27/11:00pm 11.6 7.2 4.6 62 3.2 W 17 20 9 11 1012.8 1012.8 0.0
27/10:30pm 10.4 6.1 5.4 71 2.3 W 17 20 9 11 1013.0 1013.0 0.0
27/10:00pm 8.0 6.8 4.6 79 1.5 CALM 0 0 0 0 1013.1 1013.1 0.0
27/09:30pm 8.5 5.6 4.5 76 1.8 W 9 13 5 7 1012.8 1012.8 0.0
27/09:00pm 9.2 8.0 4.6 73 2.0 CALM 0 4 0 2 1012.9 1012.9 0.0
27/08:30pm 10.0 8.2 3.7 65 2.8 SW 2 6 1 3 1012.7 1012.7 0.0
27/08:00pm 12.2 9.7 3.7 56 3.8 SW 6 9 3 5 1012.4 1012.4 0.0
27/07:30pm 13.7 11.0 2.9 48 4.8 SW 6 17 3 9 1012.1 1012.1 0.0
27/07:00pm 12.0 9.5 4.0 58 3.6 WSW 6 9 3 5 1011.6 1011.6 0.0
27/06:30pm 13.8 9.5 3.3 49 4.7 WSW 15 20 8 11 1011.1 1011.1 0.0
27/06:00pm 14.5 11.8 5.6 55 4.2 SW 9 15 5 8 1010.6 1010.6 0.0
27/05:30pm 16.0 11.3 5.9 51 4.9 WSW 20 32 11 17 1010.1 1010.1 0.0
27/05:00pm 16.5 12.6 6.9 53 4.8 S 17 26 9 14 1009.5 1009.5 0.0
27/04:30pm 17.2 13.3 8.6 57 4.4 S 19 33 10 18 1009.4 1009.4 0.0
27/04:00pm 18.2 10.2 1.7 33 7.4 W 33 52 18 28 1008.5 1008.5 0.0
27/03:30pm 18.4 9.6 1.4 32 7.6 W 37 56 20 30 1007.9 1007.9 0.0
27/03:00pm 18.8 9.2 0.9 30 8.0 W 41 61 22 33 1007.5 1007.5 0.0
27/02:30pm 18.9 8.4 1.4 31 7.9 W 46 67 25 36 1007.3 1007.3 0.0
27/02:00pm 19.1 8.9 1.1 30 8.1 W 44 63 24 34 1007.3 1007.3 0.0
27/01:30pm 19.5 9.4 1.5 30 8.2 W 44 65 24 35 1007.2 1007.2 0.0
27/01:21pm 19.4 9.3 0.4 28 8.4 W 43 63 23 34 1007.2 1007.2 0.0
27/01:11pm 19.9 11.5 1.8 30 8.3 WSW 35 50 19 27 1007.3 1007.3 0.0
27/01:08pm 19.5 10.6 0.5 28 8.4 WSW 37 50 20 27 1007.2 1007.2 0.0
27/01:00pm 19.8 10.4 2.6 32 8.0 W 41 52 22 28 1007.1 1007.1 0.0
27/12:30pm 19.8 10.3 1.7 30 8.3 W 41 65 22 35 1007.1 1007.1 0.0
27/12:07pm 20.1 12.1 3.8 34 7.8 W 35 54 19 29 1007.2 1007.2 0.0
27/12:00pm 20.3 12.3 3.9 34 7.9 W 35 48 19 26 1007.0 1007.0 0.0
27/11:40am 20.0 11.8 2.8 32 8.0 W 35 54 19 29 1007.0 1007.0 0.0
27/11:34am 19.5 11.2 4.4 37 7.3 WNW 37 52 20 28 1007.1 1007.1 0.0
27/11:30am 20.4 12.0 5.6 38 7.3 WNW 39 52 21 28 1007.1 1007.1 0.0
27/11:16am 18.9 9.7 5.4 41 6.6 WNW 43 65 23 35 1007.4 1007.4 0.0
27/11:12am 19.0 9.6 4.4 38 7.0 W 43 65 23 35 1007.3 1007.3 0.0
27/11:01am 19.2 10.6 6.7 44 6.3 WSW 41 59 22 32 1007.5 1007.5 0.0
27/11:00am 19.1 10.9 6.6 44 6.3 WSW 39 54 21 29 1007.6 1007.6 0.0
27/10:59am 19.2 11.1 7.0 45 6.2 WSW 39 54 21 29 1007.6 1007.6 0.0
27/10:52am 19.1 12.1 6.2 43 6.4 WSW 32 50 17 27 1007.7 1007.7 0.0
27/10:37am 19.5 13.6 7.3 45 6.2 W 28 46 15 25 1007.7 1007.7 0.0
27/10:30am 19.4 15.2 8.4 49 5.7 W 20 33 11 18 1007.7 1007.7 0.0
27/10:00am 16.9 14.9 7.0 52 4.9 SE 7 11 4 6 1008.1 1008.1 0.0
27/09:30am 17.2 13.6 6.7 50 5.2 NE 15 22 8 12 1008.1 1008.1 0.0
27/09:00am 16.4 13.0 6.0 50 5.1 NE 13 19 7 10 1008.5 1008.5 0.0
27/08:30am 15.0 12.3 5.5 53 4.5 NNE 9 13 5 7 1009.1 1009.1 0.0
27/08:00am 11.8 10.3 8.3 79 1.7 ENE 6 9 3 5 1009.5 1009.5 0.0
27/07:30am 10.9 8.5 7.2 78 1.8 NNW 9 11 5 6 1009.9 1009.9 0.0
27/07:00am 9.0 6.6 6.8 86 1.0 WSW 9 15 5 8 1010.4 1010.4 0.0
27/06:30am 9.1 7.2 6.7 85 1.1 WSW 6 7 3 4 1010.3 1010.3 0.0
27/06:00am 8.8 7.6 6.6 86 1.0 WSW 2 7 1 4 1010.1 1010.1 0.0
27/05:30am 8.2 7.3 6.2 87 0.9 CALM 0 6 0 3 1010.5 1010.5 0.0
27/05:00am 8.1 6.8 6.1 87 0.9 WSW 2 7 1 4 1010.6 1010.6 0.0
27/04:30am 8.4 7.5 5.9 84 1.1 CALM 0 0 0 0 1010.7 1010.7 0.0
27/04:00am 8.2 6.4 5.3 82 1.3 WSW 4 11 2 6 1010.9 1010.9 0.0
27/03:30am 10.1 7.2 4.5 68 2.5 W 9 13 5 7 1010.8 1010.8 0.0
27/03:00am 11.2 7.6 4.9 65 2.9 N 13 19 7 10 1010.9 1010.9 0.0
27/02:30am 11.5 7.4 4.5 62 3.2 N 15 17 8 9 1011.1 1011.1 0.0
27/02:00am 13.0 8.8 3.9 54 4.1 NW 15 22 8 12 1011.4 1011.4 0.0
27/01:30am 12.3 7.2 4.0 57 3.7 NW 20 32 11 17 1011.7 1011.7 0.0
27/01:00am 12.3 8.1 4.0 57 3.7 WNW 15 24 8 13 1011.8 1011.8 0.0
27/12:30am 13.4 8.8 3.8 52 4.3 NW 17 20 9 11 1011.9 1011.9 0.0
27/12:00am 13.0 8.4 3.9 54 4.1 WNW 17 22 9 12 1012.3 1012.3 0.0
 
Date/Time
EST
Temp
°C
App
Temp
°C
Dew
Point
°C
Rel
Hum
%
Delta-T
°C
Wind Press
QNH
hPa
Press
MSL
hPa
Rain since
9am
mm
Dir  Spd
km/h
Gust
km/h
Spd
kts
Gust
kts
26/11:30pm 13.2 7.0 4.1 54 4.1 W 26 33 14 18 1012.3 1012.3 0.0
26/11:00pm 12.8 7.8 4.5 57 3.8 WSW 20 30 11 16 1012.1 1012.1 0.0
26/10:30pm 12.5 7.1 4.5 58 3.6 WSW 22 30 12 16 1012.3 1012.3 0.0
26/10:00pm 13.0 7.5 4.2 55 4.0 WSW 22 28 12 15 1012.4 1012.4 0.0
26/09:30pm 13.4 7.1 4.0 53 4.3 W 26 33 14 18 1012.1 1012.1 0.0
26/09:00pm 13.1 7.3 4.5 56 3.9 W 24 30 13 16 1012.0 1012.0 0.0
26/08:30pm 13.3 7.6 4.7 56 4.0 W 24 32 13 17 1011.8 1011.8 0.0
26/08:00pm 13.3 7.6 5.0 57 3.8 WSW 24 32 13 17 1011.7 1011.7 0.0
26/07:30pm 13.6 8.7 5.0 56 4.0 W 20 28 11 15 1011.7 1011.7 0.0
26/07:00pm 13.0 9.1 5.4 60 3.5 WSW 15 17 8 9 1011.6 1011.6 0.0
26/06:30pm 14.1 10.5 5.2 55 4.2 WNW 13 17 7 9 1011.4 1011.4 0.0
26/06:00pm 14.5 10.5 4.8 52 4.5 W 15 17 8 9 1011.0 1011.0 0.0
26/05:30pm 16.3 10.5 4.4 45 5.6 W 24 33 13 18 1010.6 1010.6 0.0
26/05:00pm 17.6 12.8 4.9 43 6.1 WSW 19 26 10 14 1010.3 1010.3 0.0
26/04:30pm 18.5 12.5 3.6 37 7.0 WSW 24 37 13 20 1010.0 1010.0 0.0
26/04:00pm 18.6 12.8 4.4 39 6.8 W 24 32 13 17 1009.9 1009.9 0.0
26/03:30pm 19.6 12.8 4.9 38 7.1 WSW 30 41 16 22 1009.7 1009.7 0.0
26/03:25pm 19.3 13.9 4.6 38 7.1 SW 22 41 12 22 1009.7 1009.7 0.0
26/03:00pm 17.4 14.5 8.3 55 4.7 NE 13 17 7 9 1009.6 1009.6 0.0
26/02:30pm 17.4 14.0 7.7 53 4.9 NNE 15 20 8 11 1009.5 1009.5 0.0
26/02:00pm 18.3 15.1 8.6 53 5.0 NE 15 24 8 13 1009.6 1009.6 0.0
26/01:30pm 18.8 14.3 8.7 52 5.2 ENE 22 33 12 18 1009.5 1009.5 0.0
26/01:00pm 20.6 16.2 6.5 40 7.1 WSW 19 28 10 15 1009.7 1009.7 0.0
26/12:30pm 19.8 17.5 5.8 40 6.9 WSW 7 19 4 10 1010.1 1010.1 0.0
26/12:00pm 18.9 14.6 3.5 36 7.2 WSW 15 28 8 15 1010.6 1010.6 0.0
26/11:30am 18.2 14.6 5.1 42 6.3 SSW 13 24 7 13 1010.9 1010.9 0.0
26/11:00am 17.8 13.5 5.4 44 6.0 S 17 28 9 15 1011.5 1011.5 0.0
26/10:30am 17.2 13.3 5.5 46 5.6 WSW 15 26 8 14 1012.0 1012.0 0.0
26/10:00am 16.7 11.6 4.1 43 5.9 SW 20 32 11 17 1012.4 1012.4 0.0
26/09:30am 16.1 11.4 5.1 48 5.2 SW 19 26 10 14 1012.8 1012.8 0.0
26/09:00am 15.7 10.9 4.4 47 5.3 SW 19 30 10 16 1012.9 1012.9 6.2
26/08:30am 14.8 12.3 4.8 51 4.7 W 7 13 4 7 1013.0 1013.0 6.2
26/08:00am 14.1 10.3 6.0 58 3.9 WNW 15 17 8 9 1013.1 1013.1 6.2
26/07:30am 13.1 8.2 5.3 59 3.6 W 20 24 11 13 1013.0 1013.0 6.2
26/07:00am 11.7 6.8 6.8 72 2.3 W 22 26 12 14 1013.0 1013.0 6.2
26/06:30am 9.5 7.3 7.8 89 0.8 SW 9 17 5 9 1013.1 1013.1 6.2
26/06:00am 8.2 6.6 7.8 97 0.2 S 6 9 3 5 1012.9 1012.9 6.2
26/05:30am 8.2 6.2 7.1 93 0.5 SW 7 11 4 6 1012.7 1012.7 6.2
26/05:00am 9.1 6.8 7.5 90 0.8 WSW 9 19 5 10 1012.6 1012.6 6.2
26/04:30am 9.4 7.8 8.8 96 0.3 WSW 7 9 4 5 1012.5 1012.5 6.0
26/04:00am 9.9 9.9 9.8 99 0.1 CALM 0 0 0 0 1012.3 1012.3 6.0
26/03:30am 10.0 8.9 9.9 99 0.1 W 6 7 3 4 1012.2 1012.2 6.0
26/03:00am 10.8 9.3 10.6 99 0.1 W 9 11 5 6 1012.2 1012.2 6.0
26/02:35am 11.4 10.6 11.1 98 0.2 SW 6 9 3 5 1012.1 1012.1 6.0
26/02:30am 11.7 11.7 11.2 97 0.3 SW 2 9 1 5 1012.1 1012.1 6.0
26/02:00am 12.3 12.7 11.4 94 0.5 CALM 0 6 0 3 1012.3 1012.3 6.0
26/01:30am 12.6 11.7 11.3 92 0.7 SW 7 11 4 6 1012.3 1012.3 6.0
26/01:00am 12.8 11.7 11.9 94 0.5 SW 9 11 5 6 1012.4 1012.4 6.0
26/12:50am 13.0 11.4 11.6 91 0.7 SW 11 15 6 8 1012.4 1012.4 6.0
26/12:34am 13.0 11.1 11.9 93 0.6 SW 13 17 7 9 1012.5 1012.5 6.0
26/12:30am 13.1 11.2 11.8 92 0.7 SW 13 17 7 9 1012.6 1012.6 5.8
26/12:00am 13.2 13.5 12.3 94 0.5 S 2 7 1 4 1012.4 1012.4 5.6
 
Date/Time
EST
Temp
°C
App
Temp
°C
Dew
Point
°C
Rel
Hum
%
Delta-T
°C
Wind Press
QNH
hPa
Press
MSL
hPa
Rain since
9am
mm
Dir  Spd
km/h
Gust
km/h
Spd
kts
Gust
kts
25/11:41pm 13.5 12.1 12.2 92 0.7 SSW 11 15 6 8 1012.1 1012.1 5.6
25/11:30pm 13.5 12.2 12.4 93 0.6 SW 11 17 6 9 1012.2 1012.2 5.6
25/11:28pm 13.4 12.0 12.1 92 0.7 SW 11 17 6 9 1012.2 1012.2 5.6
25/11:18pm 13.3 12.4 12.7 96 0.3 SW 9 11 5 6 1012.1 1012.1 5.6
25/11:05pm 13.3 13.1 13.0 98 0.2 SW 6 11 3 6 1012.1 1012.1 5.6
25/11:00pm 13.4 13.6 13.1 98 0.2 SW 4 11 2 6 1012.1 1012.1 5.6
25/10:52pm 13.4 13.6 12.9 97 0.3 SW 4 7 2 4 1012.0 1012.0 5.6
25/10:42pm 13.3 13.9 13.0 98 0.2 SW 2 6 1 3 1011.9 1011.9 5.4
25/10:30pm 13.4 13.1 13.2 99 0.1 SW 7 11 4 6 1011.8 1011.8 5.2
25/10:00pm 13.5 12.8 13.2 98 0.2 SSW 9 13 5 7 1011.8 1011.8 5.0
25/09:57pm 13.4 12.6 12.9 97 0.3 SSW 9 13 5 7 1011.8 1011.8 4.8
25/09:35pm 13.7 12.1 12.8 94 0.5 S 13 19 7 10 1011.7 1011.7 4.0
25/09:30pm 13.7 12.8 12.6 93 0.6 SW 9 15 5 8 1011.7 1011.7 3.2
25/09:00pm 14.1 13.8 12.7 91 0.8 WSW 6 9 3 5 1011.4 1011.4 3.0
25/08:48pm 13.9 14.3 12.5 91 0.8 WSW 2 7 1 4 1011.2 1011.2 3.0
25/08:37pm 13.8 14.7 12.9 94 0.5 CALM 0 0 0 0 1011.1 1011.1 3.0
25/08:30pm 13.9 14.7 12.6 92 0.7 CALM 0 0 0 0 1011.1 1011.1 3.0
25/08:00pm 14.0 14.5 12.7 92 0.7 WSW 2 7 1 4 1010.8 1010.8 3.0
25/07:30pm 14.0 13.6 13.1 94 0.5 WSW 7 11 4 6 1010.5 1010.5 3.0
25/07:00pm 13.8 14.5 12.2 90 0.9 CALM 0 0 0 0 1010.3 1010.3 3.0
25/06:30pm 14.2 13.7 11.9 86 1.2 WSW 6 9 3 5 1009.7 1009.7 3.0
25/06:00pm 14.6 13.3 12.5 87 1.1 SW 11 15 6 8 1009.1 1009.1 3.0
25/05:30pm 14.7 14.0 13.1 90 0.9 SSW 9 13 5 7 1009.1 1009.1 2.8
25/05:00pm 15.2 16.2 13.2 88 1.1 CALM 0 7 0 4 1008.8 1008.8 2.4
25/04:30pm 15.3 12.9 12.6 84 1.5 S 17 20 9 11 1008.4 1008.4 2.4
25/04:00pm 16.3 15.9 14.0 86 1.3 SSW 9 17 5 9 1007.7 1007.7 2.4
25/03:30pm 16.9 14.1 12.6 76 2.4 S 19 28 10 15 1007.2 1007.2 1.8
25/03:00pm 18.0 16.9 12.0 68 3.3 SW 9 13 5 7 1006.7 1006.7 1.8
25/02:30pm 18.2 17.5 13.1 72 2.9 NNW 9 13 5 7 1006.1 1006.1 1.8
25/02:00pm 16.3 15.1 12.7 79 2.0 WNW 11 13 6 7 1006.1 1006.1 1.8
25/01:30pm 16.9 14.4 12.2 74 2.6 S 17 24 9 13 1005.8 1005.8 1.8
25/01:05pm 14.9 12.6 13.1 89 1.0 SSE 17 24 9 13 1005.4 1005.4 1.8
25/01:00pm 15.0 12.3 12.9 87 1.2 SSE 19 30 10 16 1005.5 1005.5 1.8
25/12:48pm 15.1 9.7 12.1 82 1.6 SSE 32 44 17 24 1005.6 1005.6 1.4
25/12:30pm 20.0 16.2 9.9 52 5.4 SSE 20 30 11 16 1004.9 1004.9 0.0
25/12:00pm 21.4 18.4 9.3 46 6.5 SW 15 24 8 13 1004.6 1004.6 0.0
25/11:30am 21.5 20.2 10.0 48 6.2 S 7 15 4 8 1004.8 1004.8 0.0
25/11:00am 20.8 19.5 11.2 54 5.3 SW 9 20 5 11 1005.0 1005.0 0.0
25/10:30am 19.7 18.3 9.6 52 5.4 SW 7 13 4 7 1005.3 1005.3 0.0

Other Formats:

Comma delimited format used in spreadsheet applications
http://www.bom.gov.au/fwo/IDN60801/IDN60801.95748.axf

JavaScript Object Notation format (JSON) in row-major order
http://www.bom.gov.au/fwo/IDN60801/IDN60801.95748.json